Time;durP1;ratioP1;P1;durP2;ratioP2;P2;SDS_P1;SDS_P2;PMS_P1;PMS_P2;Temp;Humidity;BMP_temperature;BMP_pressure;BME280_temperature;BME280_humidity;BME280_pressure;Samples;Min_cycle;Max_cycle;Signal;HPM_P1;HPM_P2
2022/06/11 00:01:34;;;;;;;;;;;20.40;75.10;;;;;;5078487;28;20020;-66
2022/06/11 00:04:06;;;;;;;1.92;1.50;;;20.40;74.90;;;;;;5088127;28;19955;-64
2022/06/11 00:06:36;;;;;;;1.73;1.40;;;20.40;74.60;;;;;;5091970;28;20028;-65
2022/06/11 00:09:03;;;;;;;3.22;1.55;;;20.40;74.40;;;;;;5086845;28;20024;-65
2022/06/11 00:11:29;;;;;;;1.73;1.27;;;20.50;74.30;;;;;;5084832;28;20133;-65
2022/06/11 00:13:55;;;;;;;2.55;1.60;;;20.50;74.00;;;;;;5081435;28;20173;-65
2022/06/11 00:16:23;;;;;;;1.40;1.30;;;20.50;73.90;;;;;;5097716;28;20039;-64
2022/06/11 00:18:50;;;;;;;6.82;1.52;;;20.50;73.70;;;;;;5100049;28;20039;-65
2022/06/11 00:21:16;;;;;;;1.65;1.25;;;20.40;73.60;;;;;;5093158;28;20032;-65
2022/06/11 00:23:44;;;;;;;1.20;1.10;;;20.40;73.50;;;;;;5085999;28;20028;-65
2022/06/11 00:26:10;;;;;;;2.65;1.20;;;20.40;73.40;;;;;;5080505;28;20070;-65
2022/06/11 00:28:37;;;;;;;1.33;1.00;;;20.40;73.30;;;;;;5079247;28;20111;-64
2022/06/11 00:31:03;;;;;;;2.97;1.15;;;20.40;73.20;;;;;;5095921;28;20475;-65
2022/06/11 00:33:29;;;;;;;3.22;1.30;;;20.40;73.10;;;;;;5087813;28;20340;-65
2022/06/11 00:35:55;;;;;;;1.17;0.93;;;20.40;73.00;;;;;;5088418;28;20031;-66
2022/06/11 00:38:23;;;;;;;1.25;1.15;;;20.40;72.90;;;;;;5088266;28;20032;-65
2022/06/11 00:40:51;;;;;;;4.38;1.30;;;20.30;72.90;;;;;;5089531;28;20051;-65
2022/06/11 00:43:20;;;;;;;4.28;0.93;;;20.30;72.90;;;;;;5091497;28;20044;-65
2022/06/11 00:46:01;;;;;;;0.82;0.82;;;20.20;72.90;;;;;;5075696;28;20024;-65
2022/06/11 00:48:36;;;;;;;2.05;1.52;;;20.20;73.10;;;;;;5077674;28;20108;-64
2022/06/11 00:51:13;;;;;;;1.23;1.00;;;20.20;73.10;;;;;;5090386;28;20020;-66
2022/06/11 00:53:44;;;;;;;1.10;0.90;;;20.20;73.10;;;;;;5071319;28;20028;-65
2022/06/11 00:56:16;;;;;;;3.60;1.05;;;20.20;73.10;;;;;;5086882;28;20033;-65
2022/06/11 00:58:45;;;;;;;3.85;1.42;;;20.10;73.00;;;;;;5096397;28;20032;-66
2022/06/11 01:01:15;;;;;;;1.40;0.75;;;20.10;73.00;;;;;;5090626;28;20054;-66
2022/06/11 01:03:44;;;;;;;1.63;1.33;;;20.00;73.10;;;;;;5077867;28;20042;-65
2022/06/11 01:06:31;;;;;;;1.10;1.00;;;19.90;73.20;;;;;;5081361;28;20012;-66
2022/06/11 01:09:21;;;;;;;2.28;1.15;;;19.90;73.40;;;;;;5080928;28;20484;-65
2022/06/11 01:12:13;;;;;;;2.53;1.42;;;19.90;73.50;;;;;;5090034;28;20024;-65
2022/06/11 01:14:41;;;;;;;1.13;0.83;;;19.80;73.50;;;;;;5074947;28;20069;-65
2022/06/11 01:17:16;;;;;;;2.20;1.23;;;19.80;73.50;;;;;;5079670;28;20294;-64
2022/06/11 01:20:03;;;;;;;1.60;1.20;;;19.80;73.70;;;;;;5083518;28;20518;-66
2022/06/11 01:22:55;;;;;;;1.38;1.27;;;19.70;73.70;;;;;;5091940;28;20081;-65
2022/06/11 01:25:57;;;;;;;2.70;1.15;;;19.70;73.80;;;;;;5085033;28;20550;-65
2022/06/11 01:28:49;;;;;;;1.00;0.75;;;19.70;73.80;;;;;;5074683;28;20480;-65
2022/06/11 01:31:31;;;;;;;1.17;1.00;;;19.70;73.80;;;;;;5091299;28;20382;-66
2022/06/11 01:34:21;;;;;;;1.55;1.38;;;19.70;73.80;;;;;;5086607;28;20020;-65
2022/06/11 01:36:52;;;;;;;1.17;1.08;;;19.60;73.70;;;;;;5068643;28;20025;-66
2022/06/11 01:39:28;;;;;;;1.20;1.10;;;19.60;73.80;;;;;;5078729;28;20023;-62
2022/06/11 01:42:06;;;;;;;1.20;0.85;;;19.60;73.80;;;;;;5079997;28;20439;-64
2022/06/11 01:44:39;;;;;;;1.83;1.10;;;19.50;73.80;;;;;;5071004;28;20074;-65
2022/06/11 01:47:06;;;;;;;1.15;1.05;;;19.50;73.80;;;;;;5086767;28;20036;-63
2022/06/11 01:49:40;;;;;;;2.42;1.15;;;19.40;73.70;;;;;;5072964;28;20035;-63
2022/06/11 01:52:28;;;;;;;1.83;1.10;;;19.40;73.70;;;;;;5089935;28;20057;-65
2022/06/11 01:55:14;;;;;;;0.82;0.82;;;19.30;73.70;;;;;;5080769;28;20032;-66
2022/06/11 01:57:49;;;;;;;3.13;2.10;;;19.30;73.70;;;;;;5096202;28;20040;-66
2022/06/11 02:00:20;;;;;;;1.33;1.02;;;19.20;73.80;;;;;;5096424;28;20028;-65
2022/06/11 02:02:57;;;;;;;0.80;0.75;;;19.10;73.80;;;;;;5101714;28;20119;-66
2022/06/11 02:05:37;;;;;;;1.08;0.95;;;19.10;73.90;;;;;;5090742;28;20025;-65
2022/06/11 02:08:27;;;;;;;2.38;1.17;;;19.10;73.90;;;;;;5104583;28;20024;-66
2022/06/11 02:11:16;;;;;;;1.02;0.98;;;19.00;74.00;;;;;;5089160;28;20024;-66
2022/06/11 02:14:08;;;;;;;1.30;1.15;;;19.00;74.10;;;;;;5082982;28;20024;-66
2022/06/11 02:16:44;;;;;;;0.98;0.98;;;19.00;74.30;;;;;;5060239;28;20036;-64
2022/06/11 02:19:14;;;;;;;0.80;0.80;;;18.90;74.20;;;;;;5071392;28;20423;-65
2022/06/11 02:21:49;;;;;;;2.63;1.50;;;18.90;74.20;;;;;;5093715;28;20118;-65
2022/06/11 02:24:24;;;;;;;1.70;1.20;;;18.90;74.40;;;;;;5106732;28;20377;-66
2022/06/11 02:26:54;;;;;;;1.25;1.15;;;18.90;74.50;;;;;;5094637;28;20032;-65
2022/06/11 02:29:23;;;;;;;1.15;1.05;;;18.90;74.50;;;;;;5094919;28;20021;-65
2022/06/11 02:31:57;;;;;;;1.67;1.02;;;18.90;74.50;;;;;;5076002;28;20111;-65
2022/06/11 02:34:25;;;;;;;1.20;1.10;;;18.80;74.40;;;;;;5080689;28;20092;-65
2022/06/11 02:37:00;;;;;;;1.45;1.08;;;18.80;74.40;;;;;;5090936;28;20020;-65
2022/06/11 02:39:27;;;;;;;1.67;1.38;;;18.80;74.50;;;;;;5085342;28;20112;-65
2022/06/11 02:41:53;;;;;;;1.88;1.20;;;18.80;74.60;;;;;;5087500;28;20043;-65
2022/06/11 02:44:20;;;;;;;0.85;0.85;;;18.80;74.90;;;;;;5082831;28;20055;-66
2022/06/11 02:46:45;;;;;;;3.03;1.60;;;18.80;74.90;;;;;;5087381;28;20039;-65
2022/06/11 02:49:22;;;;;;;1.35;1.25;;;18.80;74.90;;;;;;5069687;28;20020;-64
2022/06/11 02:51:49;;;;;;;1.75;1.05;;;18.80;74.90;;;;;;5080866;28;20025;-65
2022/06/11 02:54:16;;;;;;;1.17;1.10;;;18.70;74.90;;;;;;5084852;28;20039;-66
2022/06/11 02:56:42;;;;;;;1.17;1.05;;;18.80;74.90;;;;;;5082354;28;20025;-66
2022/06/11 02:59:08;;;;;;;1.20;1.10;;;18.70;74.90;;;;;;5079152;28;20024;-64
2022/06/11 03:01:35;;;;;;;1.40;1.30;;;18.70;75.00;;;;;;5083185;28;20445;-65
2022/06/11 03:04:01;;;;;;;0.90;0.90;;;18.70;74.90;;;;;;5080803;28;20036;-65
2022/06/11 03:06:27;;;;;;;4.80;1.00;;;18.70;75.00;;;;;;5073416;28;20024;-65
2022/06/11 03:08:55;;;;;;;1.13;1.05;;;18.70;75.00;;;;;;5081427;28;20036;-65
2022/06/11 03:11:21;;;;;;;3.20;1.27;;;18.70;75.00;;;;;;5084862;28;20029;-65
2022/06/11 03:13:47;;;;;;;1.00;1.00;;;18.60;75.00;;;;;;5070994;28;20035;-65
2022/06/11 03:16:13;;;;;;;1.20;1.02;;;18.60;75.00;;;;;;5092150;28;20020;-63
2022/06/11 03:18:39;;;;;;;1.15;1.00;;;18.60;75.20;;;;;;5075387;28;20032;-63
2022/06/11 03:21:05;;;;;;;2.38;1.52;;;18.60;75.20;;;;;;5066689;28;20028;-62
2022/06/11 03:23:31;;;;;;;2.40;1.65;;;18.60;75.50;;;;;;5080911;28;20032;-66
2022/06/11 03:25:57;;;;;;;1.25;1.10;;;18.60;75.80;;;;;;5080199;28;20032;-63
2022/06/11 03:28:26;;;;;;;1.30;1.20;;;18.50;75.80;;;;;;5083669;28;20481;-64
2022/06/11 03:30:53;;;;;;;2.88;1.77;;;18.50;76.00;;;;;;5083237;28;20105;-63
2022/06/11 03:33:20;;;;;;;1.50;1.40;;;18.50;76.80;;;;;;5069498;28;20020;-63
2022/06/11 03:35:48;;;;;;;2.67;1.85;;;18.50;76.20;;;;;;5085361;28;20029;-64
2022/06/11 03:38:14;;;;;;;1.63;1.38;;;18.50;76.50;;;;;;5081429;28;20119;-62
2022/06/11 03:40:40;;;;;;;2.25;1.45;;;18.50;76.50;;;;;;5092947;28;20043;-64
2022/06/11 03:43:06;;;;;;;1.95;1.30;;;18.50;76.50;;;;;;5088364;28;20032;-63
2022/06/11 03:45:32;;;;;;;1.65;1.55;;;18.60;76.50;;;;;;5082970;28;20024;-63
2022/06/11 03:47:58;;;;;;;1.42;1.20;;;18.50;76.40;;;;;;5082134;28;20025;-63
2022/06/11 03:50:34;;;;;;;1.23;1.13;;;18.50;76.30;;;;;;5071663;28;20020;-63
2022/06/11 03:53:01;;;;;;;1.95;0.98;;;18.60;76.40;;;;;;5082159;28;20475;-64
2022/06/11 03:55:27;;;;;;;2.05;1.50;;;18.50;76.40;;;;;;5069969;28;20035;-65
2022/06/11 03:57:53;;;;;;;1.52;1.08;;;18.50;76.50;;;;;;5076266;28;20036;-65
2022/06/11 04:03:11;;;;;;;1.65;1.02;;;18.50;76.30;;;;;;5076998;28;20511;-66
2022/06/11 04:05:40;;;;;;;1.83;1.45;;;18.60;76.10;;;;;;5071454;28;20051;-63
2022/06/11 04:08:07;;;;;;;1.50;1.38;;;18.60;76.10;;;;;;5083558;28;20395;-63
2022/06/11 04:10:33;;;;;;;1.85;1.50;;;18.60;76.10;;;;;;5090692;28;20019;-63
2022/06/11 04:13:00;;;;;;;5.40;1.10;;;18.60;76.00;;;;;;5072833;28;20030;-63
2022/06/11 04:15:25;;;;;;;3.03;1.73;;;18.60;75.90;;;;;;5069060;28;20040;-63
2022/06/11 04:17:52;;;;;;;2.30;1.40;;;18.60;75.80;;;;;;5071628;28;20025;-65
2022/06/11 04:20:19;;;;;;;0.93;0.93;;;18.50;76.00;;;;;;5101330;28;20032;-65
2022/06/11 04:22:45;;;;;;;2.92;1.10;;;18.50;75.90;;;;;;5077537;28;20017;-65
2022/06/11 04:25:13;;;;;;;2.10;1.10;;;18.50;75.80;;;;;;5098332;28;20142;-65
2022/06/11 04:27:39;;;;;;;1.88;1.50;;;18.60;75.70;;;;;;5088392;28;20043;-65
2022/06/11 04:30:06;;;;;;;3.17;1.02;;;18.60;75.40;;;;;;5077840;28;20024;-65
2022/06/11 04:32:32;;;;;;;5.68;1.10;;;18.70;75.10;;;;;;5097157;28;20084;-65
2022/06/11 04:34:58;;;;;;;0.88;0.88;;;18.60;74.90;;;;;;5087592;28;20044;-65
2022/06/11 04:37:26;;;;;;;1.30;1.00;;;18.70;74.90;;;;;;5076289;28;20032;-65
2022/06/11 04:39:54;;;;;;;1.33;1.00;;;18.70;74.50;;;;;;5086709;28;20024;-64
2022/06/11 04:42:21;;;;;;;0.60;0.60;;;18.80;74.30;;;;;;5085011;28;20067;-65
2022/06/11 04:44:47;;;;;;;1.85;0.98;;;18.80;74.00;;;;;;5072845;28;20070;-65
2022/06/11 04:47:17;;;;;;;3.47;0.85;;;18.80;73.60;;;;;;5081418;28;20028;-65
2022/06/11 04:49:44;;;;;;;1.73;1.00;;;18.80;73.10;;;;;;5070670;28;20028;-65
2022/06/11 04:52:10;;;;;;;8.60;1.30;;;18.70;72.80;;;;;;5088803;28;20040;-64
2022/06/11 04:54:36;;;;;;;1.90;0.77;;;18.70;72.60;;;;;;5083373;28;20533;-64
2022/06/11 04:57:01;;;;;;;2.65;0.98;;;18.70;72.60;;;;;;5094552;28;20024;-64
2022/06/11 04:59:28;;;;;;;1.95;1.10;;;18.70;72.50;;;;;;5076516;28;20043;-65
2022/06/11 05:01:54;;;;;;;2.40;0.70;;;18.70;72.20;;;;;;5068603;28;20042;-65
2022/06/11 05:04:19;;;;;;;0.65;0.65;;;18.80;72.20;;;;;;5067541;28;20032;-65
2022/06/11 05:06:47;;;;;;;1.75;0.90;;;18.80;72.10;;;;;;5080801;28;20032;-64
2022/06/11 05:09:16;;;;;;;0.52;0.50;;;18.90;71.90;;;;;;5092073;28;20023;-65
2022/06/11 05:11:43;;;;;;;2.10;0.80;;;19.00;71.70;;;;;;5094647;28;20028;-66
2022/06/11 05:14:08;;;;;;;2.15;0.80;;;19.00;71.30;;;;;;5081966;28;20499;-64
2022/06/11 05:16:35;;;;;;;1.08;0.88;;;19.10;71.40;;;;;;5080841;28;20165;-65
2022/06/11 05:19:02;;;;;;;4.10;1.02;;;19.10;70.80;;;;;;5076512;28;20475;-64
2022/06/11 05:21:27;;;;;;;2.15;0.60;;;19.00;70.20;;;;;;5081407;28;20024;-65
2022/06/11 05:23:53;;;;;;;2.28;1.30;;;19.00;70.50;;;;;;5086531;28;20032;-64
2022/06/11 05:26:24;;;;;;;1.40;0.90;;;19.00;70.80;;;;;;5084110;28;20024;-65
2022/06/11 05:28:50;;;;;;;2.88;1.33;;;19.00;70.50;;;;;;5100996;28;20426;-65
2022/06/11 05:31:16;;;;;;;4.70;1.30;;;19.00;70.70;;;;;;5079835;28;20028;-65
2022/06/11 05:33:43;;;;;;;3.63;1.15;;;19.10;70.60;;;;;;5079398;28;20029;-65
2022/06/11 05:36:11;;;;;;;2.58;1.17;;;19.10;69.80;;;;;;5086955;28;20371;-65
2022/06/11 05:38:37;;;;;;;1.83;0.90;;;19.20;69.90;;;;;;5089828;28;20474;-65
2022/06/11 05:41:03;;;;;;;2.92;1.27;;;19.20;69.60;;;;;;5072363;28;20110;-64
2022/06/11 05:43:29;;;;;;;2.30;0.73;;;19.20;70.20;;;;;;5072181;28;20033;-65
2022/06/11 05:46:00;;;;;;;0.47;0.47;;;19.20;69.60;;;;;;5094913;28;20055;-65
2022/06/11 05:48:32;;;;;;;2.15;1.08;;;19.30;69.70;;;;;;5094637;28;20031;-65
2022/06/11 05:50:59;;;;;;;1.33;0.90;;;19.30;69.50;;;;;;5074510;28;20027;-65
2022/06/11 05:53:28;;;;;;;4.38;1.00;;;19.40;69.30;;;;;;5082615;28;20432;-65
2022/06/11 05:55:57;;;;;;;1.95;1.00;;;19.40;69.20;;;;;;5081825;28;20021;-63
2022/06/11 05:58:27;;;;;;;5.47;1.63;;;19.40;69.10;;;;;;5071917;28;20036;-63
2022/06/11 06:00:54;;;;;;;1.02;0.80;;;19.40;69.10;;;;;;5094787;28;20034;-63
2022/06/11 06:03:20;;;;;;;2.30;1.27;;;19.40;69.00;;;;;;5071264;28;20071;-64
2022/06/11 06:05:45;;;;;;;1.55;1.15;;;19.50;69.10;;;;;;5070062;28;20113;-63
2022/06/11 06:08:11;;;;;;;2.05;1.20;;;19.50;69.00;;;;;;5071616;28;20025;-64
2022/06/11 06:10:37;;;;;;;1.70;0.80;;;19.60;68.80;;;;;;5089803;28;20367;-62
2022/06/11 06:13:45;;;;;;;2.85;1.00;;;19.60;68.70;;;;;;5074771;28;20034;-63
2022/06/11 06:15:51;;;;;;;1.50;1.10;;;19.60;68.80;;;;;;5071167;28;20494;-63
2022/06/11 06:18:16;;;;;;;6.00;1.20;;;19.70;68.60;;;;;;5071375;28;20530;-63
2022/06/11 06:20:42;;;;;;;4.32;1.08;;;19.80;69.10;;;;;;5083885;28;20138;-63
2022/06/11 06:23:07;;;;;;;1.45;0.95;;;19.90;68.50;;;;;;5087203;28;20028;-65
2022/06/11 06:25:33;;;;;;;2.47;1.17;;;20.00;68.40;;;;;;5104852;28;20035;-65
2022/06/11 06:27:59;;;;;;;4.18;1.10;;;20.00;68.60;;;;;;5089447;28;20033;-65
2022/06/11 06:30:24;;;;;;;2.30;0.88;;;20.10;68.00;;;;;;5071692;28;20442;-65
2022/06/11 06:32:50;;;;;;;1.90;1.10;;;20.10;67.90;;;;;;5071375;28;20376;-65
2022/06/11 06:35:16;;;;;;;1.55;1.15;;;20.10;68.00;;;;;;5084801;28;20434;-65
2022/06/11 06:37:41;;;;;;;5.07;1.90;;;20.20;67.80;;;;;;5083848;28;20123;-64
2022/06/11 06:40:07;;;;;;;7.25;1.15;;;20.20;67.30;;;;;;5085134;28;20039;-64
2022/06/11 06:42:33;;;;;;;4.18;1.42;;;20.20;67.20;;;;;;5091278;28;20032;-65
2022/06/11 06:44:59;;;;;;;1.23;0.90;;;20.10;67.00;;;;;;5091718;28;20028;-65
2022/06/11 06:47:24;;;;;;;2.97;0.82;;;20.10;67.60;;;;;;5094332;28;20050;-65
2022/06/11 06:49:50;;;;;;;5.47;1.33;;;20.20;67.30;;;;;;5082007;28;20442;-64
2022/06/11 06:52:16;;;;;;;2.78;0.73;;;20.20;67.20;;;;;;5082061;28;20127;-63
2022/06/11 06:54:42;;;;;;;3.30;1.25;;;20.20;67.00;;;;;;5087535;28;20147;-63
2022/06/11 06:57:07;;;;;;;2.60;1.10;;;20.40;67.20;;;;;;5088789;28;20024;-63
2022/06/11 06:59:33;;;;;;;4.05;1.15;;;20.40;66.50;;;;;;5082896;28;20441;-62
2022/06/11 07:01:59;;;;;;;5.82;1.15;;;20.50;66.40;;;;;;5083428;28;20059;-63
2022/06/11 07:04:24;;;;;;;2.22;0.93;;;20.50;66.40;;;;;;5086353;28;20043;-64
2022/06/11 07:06:50;;;;;;;3.08;1.25;;;20.60;66.20;;;;;;5089232;28;20039;-63
2022/06/11 07:09:16;;;;;;;3.67;1.08;;;20.70;65.90;;;;;;5077379;28;20399;-62
2022/06/11 07:11:41;;;;;;;1.00;0.90;;;20.70;65.70;;;;;;5070697;28;20384;-62
2022/06/11 07:14:07;;;;;;;1.42;1.00;;;20.80;65.80;;;;;;5075861;28;20028;-64
2022/06/11 07:16:38;;;;;;;2.42;1.00;;;20.90;65.70;;;;;;5073837;28;20028;-63
2022/06/11 07:19:11;;;;;;;2.45;0.90;;;21.00;65.70;;;;;;5092028;28;20028;-64
2022/06/11 07:21:40;;;;;;;4.28;1.33;;;21.00;64.90;;;;;;5070778;28;20463;-61
2022/06/11 07:24:14;;;;;;;1.92;0.68;;;21.10;65.00;;;;;;5083050;28;20037;-64
2022/06/11 07:26:46;;;;;;;1.52;1.08;;;21.10;65.10;;;;;;5070582;28;20107;-63
2022/06/11 07:29:17;;;;;;;3.38;1.85;;;21.20;64.80;;;;;;5097583;28;20020;-62
2022/06/11 07:31:46;;;;;;;1.33;1.10;;;21.30;64.80;;;;;;5077239;28;20016;-62
2022/06/11 07:34:14;;;;;;;1.83;1.17;;;21.40;64.40;;;;;;5070303;28;20107;-63
2022/06/11 07:36:40;;;;;;;2.95;1.42;;;21.40;63.80;;;;;;5071098;28;20383;-62
2022/06/11 07:39:06;;;;;;;2.78;1.08;;;21.30;63.90;;;;;;5088501;28;20060;-62
2022/06/11 07:41:32;;;;;;;4.90;1.10;;;21.40;64.10;;;;;;5069132;28;20505;-62
2022/06/11 07:43:57;;;;;;;3.10;1.10;;;21.50;64.00;;;;;;5070973;28;20028;-62
2022/06/11 07:46:23;;;;;;;2.55;1.25;;;21.50;63.70;;;;;;5081861;28;20031;-62
2022/06/11 07:48:49;;;;;;;4.53;0.82;;;21.50;63.50;;;;;;5079894;28;20024;-62
2022/06/11 07:51:18;;;;;;;2.17;1.27;;;21.50;63.80;;;;;;5088081;28;20039;-61
2022/06/11 07:53:48;;;;;;;4.47;1.30;;;21.60;63.70;;;;;;5092877;28;20032;-63
2022/06/11 07:56:15;;;;;;;2.28;0.60;;;21.60;63.50;;;;;;5075100;28;20586;-64
2022/06/11 07:58:41;;;;;;;1.40;0.73;;;21.70;63.70;;;;;;5079043;28;20063;-63
2022/06/11 08:01:06;;;;;;;2.55;1.20;;;21.80;63.60;;;;;;5078843;28;20063;-63
2022/06/11 08:03:33;;;;;;;5.15;1.20;;;21.90;62.90;;;;;;5070351;28;20048;-63
2022/06/11 08:06:02;;;;;;;2.92;0.88;;;21.90;62.70;;;;;;5069626;28;20028;-61
2022/06/11 08:08:29;;;;;;;1.35;0.73;;;21.90;62.30;;;;;;5079494;28;20035;-63
2022/06/11 08:10:54;;;;;;;2.13;1.05;;;22.00;62.30;;;;;;5088424;28;20082;-62
2022/06/11 08:13:20;;;;;;;3.08;1.30;;;21.90;60.80;;;;;;5083627;28;20028;-64
2022/06/11 08:15:49;;;;;;;1.50;0.68;;;21.90;61.10;;;;;;5083306;28;20019;-62
2022/06/11 08:18:16;;;;;;;1.85;1.38;;;21.90;60.90;;;;;;5076519;28;20469;-61
2022/06/11 08:20:42;;;;;;;2.50;0.63;;;22.00;61.00;;;;;;5079520;28;20413;-62
2022/06/11 08:23:09;;;;;;;0.80;0.73;;;22.20;61.20;;;;;;5080723;28;20032;-60
2022/06/11 08:25:35;;;;;;;2.15;1.17;;;22.30;60.80;;;;;;5073621;28;20090;-61
2022/06/11 08:28:01;;;;;;;2.28;0.70;;;22.40;60.40;;;;;;5074533;28;20554;-62
2022/06/11 08:30:29;;;;;;;8.35;1.40;;;22.50;60.40;;;;;;5075304;28;20395;-64
2022/06/11 08:32:55;;;;;;;3.38;1.27;;;22.60;60.40;;;;;;5082016;28;20032;-64
2022/06/11 08:35:24;;;;;;;3.20;0.75;;;22.70;60.00;;;;;;5084089;28;20387;-65
2022/06/11 08:37:50;;;;;;;4.00;1.88;;;22.80;60.20;;;;;;5078736;28;20387;-64
2022/06/11 08:40:19;;;;;;;1.08;0.70;;;22.90;59.60;;;;;;5076084;28;20024;-64
2022/06/11 08:43:14;;;;;;;2.67;0.95;;;22.90;59.40;;;;;;5074634;28;20052;-63
2022/06/11 08:45:54;;;;;;;2.58;0.90;;;22.90;58.70;;;;;;5073589;28;20494;-62
2022/06/11 08:48:51;;;;;;;4.25;0.98;;;23.00;58.60;;;;;;5081294;28;20055;-63
2022/06/11 08:51:32;;;;;;;1.58;0.85;;;23.00;58.60;;;;;;5067738;28;20546;-62
2022/06/11 08:54:02;;;;;;;2.22;1.08;;;23.10;58.50;;;;;;5069504;28;20028;-63
2022/06/11 08:56:36;;;;;;;4.38;1.70;;;23.20;58.80;;;;;;5096437;28;20024;-61
2022/06/11 08:59:27;;;;;;;1.80;1.10;;;23.30;56.30;;;;;;5090981;28;20184;-62
2022/06/11 09:02:08;;;;;;;2.95;0.98;;;23.30;57.00;;;;;;5074655;28;20024;-61
2022/06/11 09:05:23;;;;;;;1.15;1.05;;;23.30;56.00;;;;;;5082913;28;20101;-63
2022/06/11 09:08:53;;;;;;;3.58;1.45;;;23.40;56.70;;;;;;5019510;28;20060;-63
2022/06/11 09:11:37;;;;;;;6.22;1.15;;;23.40;55.40;;;;;;5002947;28;20033;-63
2022/06/11 09:14:40;;;;;;;2.90;1.10;;;23.40;55.20;;;;;;5070237;28;20029;-61
2022/06/11 09:17:15;;;;;;;3.53;1.00;;;23.60;55.00;;;;;;5049078;28;20144;-62
2022/06/11 09:19:40;;;;;;;3.97;1.10;;;23.60;55.20;;;;;;5081267;28;20039;-62
2022/06/11 09:22:27;;;;;;;3.53;1.00;;;23.60;54.40;;;;;;5085941;28;20028;-63
2022/06/11 09:25:04;;;;;;;4.03;0.90;;;23.50;55.20;;;;;;5082819;28;20034;-62
2022/06/11 09:27:57;;;;;;;8.68;1.48;;;23.60;54.00;;;;;;5076980;28;20032;-63
2022/06/11 09:30:40;;;;;;;1.98;0.80;;;23.60;53.50;;;;;;5088219;28;20013;-63
2022/06/11 09:33:28;;;;;;;3.80;1.10;;;23.70;52.90;;;;;;5071628;28;20638;-61
2022/06/11 09:36:06;;;;;;;3.55;0.70;;;23.70;50.60;;;;;;5072134;28;20029;-62
2022/06/11 09:38:40;;;;;;;4.55;0.90;;;23.70;49.70;;;;;;5088575;28;20039;-62
2022/06/11 09:41:36;;;;;;;5.18;1.15;;;23.80;50.10;;;;;;5078511;28;20020;-64
2022/06/11 09:44:13;;;;;;;2.15;0.65;;;23.80;50.90;;;;;;5084173;28;20036;-61
2022/06/11 09:46:53;;;;;;;0.75;0.75;;;23.80;50.80;;;;;;5083079;28;20026;-62
2022/06/11 09:49:38;;;;;;;8.50;1.42;;;23.80;51.00;;;;;;5080996;28;20025;-63
2022/06/11 09:52:20;;;;;;;0.82;0.63;;;23.80;50.90;;;;;;5086201;28;20020;-61
2022/06/11 09:55:00;;;;;;;1.70;0.82;;;23.90;51.00;;;;;;5092144;28;20047;-62
2022/06/11 09:57:29;;;;;;;5.07;1.42;;;24.00;50.90;;;;;;5091604;28;20040;-63
2022/06/11 10:00:21;;;;;;;0.50;0.50;;;24.10;51.00;;;;;;5087219;28;20219;-64
2022/06/11 10:05:55;;;;;;;2.28;1.33;;;24.30;50.40;;;;;;5068272;28;20043;-62
2022/06/11 10:08:46;;;;;;;1.77;0.80;;;24.30;50.60;;;;;;5089448;28;20046;-62
2022/06/11 10:11:23;;;;;;;6.65;1.50;;;24.40;50.80;;;;;;5077156;28;20024;-62
2022/06/11 10:13:55;;;;;;;2.30;0.98;;;24.50;49.80;;;;;;5083108;28;20069;-62
2022/06/11 10:16:30;;;;;;;3.55;1.33;;;24.50;50.40;;;;;;5078807;28;20517;-62
2022/06/11 10:19:16;;;;;;;3.00;1.25;;;24.50;50.50;;;;;;5081708;28;20127;-62
2022/06/11 10:21:55;;;;;;;1.02;0.98;;;24.50;50.00;;;;;;5070050;28;20032;-62
2022/06/11 10:24:22;;;;;;;2.88;1.33;;;24.50;50.60;;;;;;5087131;28;20024;-62
2022/06/11 10:26:56;;;;;;;0.75;0.65;;;24.70;50.90;;;;;;5079588;28;20036;-62
2022/06/11 10:29:34;;;;;;;5.25;1.40;;;24.70;50.70;;;;;;5086674;28;20013;-62
2022/06/11 10:32:06;;;;;;;1.20;1.05;;;24.70;51.40;;;;;;5082042;28;20028;-64
2022/06/11 10:34:32;;;;;;;0.70;0.70;;;24.90;51.00;;;;;;5088974;28;20070;-64
2022/06/11 10:37:20;;;;;;;5.97;0.90;;;25.00;50.50;;;;;;5074944;28;20036;-65
2022/06/11 10:40:06;;;;;;;3.35;1.15;;;25.10;50.70;;;;;;5077052;28;20021;-65
2022/06/11 10:42:35;;;;;;;1.58;1.00;;;25.30;50.70;;;;;;5076159;28;20060;-64
2022/06/11 10:45:01;;;;;;;3.35;1.17;;;25.40;50.80;;;;;;5071605;28;20499;-64
2022/06/11 10:47:34;;;;;;;2.38;0.95;;;25.60;50.10;;;;;;5088781;28;20082;-64
2022/06/11 10:50:09;;;;;;;1.42;0.98;;;25.70;50.30;;;;;;5084309;28;20032;-64
2022/06/11 10:52:53;;;;;;;1.33;0.93;;;25.70;49.40;;;;;;5075779;28;20040;-64
2022/06/11 10:55:26;;;;;;;0.98;0.73;;;25.70;49.00;;;;;;5074677;28;20470;-65
2022/06/11 10:57:54;;;;;;;1.25;0.90;;;25.80;49.20;;;;;;5083656;28;20036;-64
2022/06/11 11:00:26;;;;;;;5.43;1.77;;;25.90;49.30;;;;;;5076837;28;20089;-64
2022/06/11 11:03:05;;;;;;;2.08;1.55;;;25.90;48.90;;;;;;5092509;28;20047;-65
2022/06/11 11:05:51;;;;;;;1.20;1.10;;;25.80;48.20;;;;;;5080077;28;20028;-61
2022/06/11 11:08:17;;;;;;;1.30;1.10;;;25.90;49.30;;;;;;5090800;28;20025;-62
2022/06/11 11:10:46;;;;;;;1.33;0.85;;;26.10;49.60;;;;;;5082269;28;20415;-62
2022/06/11 11:13:24;;;;;;;1.85;1.35;;;26.20;49.60;;;;;;5076867;28;20023;-62
2022/06/11 11:16:19;;;;;;;1.70;1.38;;;26.40;48.50;;;;;;5084027;28;20025;-62
2022/06/11 11:18:45;;;;;;;4.15;1.23;;;26.50;48.80;;;;;;5080067;28;20056;-64
2022/06/11 11:21:17;;;;;;;3.92;1.98;;;26.60;48.50;;;;;;5089899;28;20075;-64
2022/06/11 11:23:46;;;;;;;2.65;1.40;;;26.60;47.70;;;;;;5075823;28;20020;-65
2022/06/11 11:26:35;;;;;;;6.65;1.00;;;26.60;47.30;;;;;;5069846;28;20081;-65
2022/06/11 11:29:11;;;;;;;3.22;1.30;;;26.30;46.80;;;;;;5080630;28;20025;-65
2022/06/11 11:31:50;;;;;;;4.35;1.02;;;25.90;48.20;;;;;;5078258;28;20040;-63
2022/06/11 11:34:29;;;;;;;5.40;1.08;;;25.90;48.80;;;;;;5077354;28;20429;-64
2022/06/11 11:37:11;;;;;;;5.57;1.50;;;25.90;48.60;;;;;;5074673;28;20825;-64
2022/06/11 11:39:37;;;;;;;2.10;0.95;;;25.80;48.40;;;;;;5080497;28;20036;-61
2022/06/11 11:42:11;;;;;;;2.03;1.13;;;25.80;48.80;;;;;;5081786;28;20671;-61
2022/06/11 11:44:42;;;;;;;4.18;0.93;;;26.00;48.40;;;;;;5069421;28;20028;-61
2022/06/11 11:47:36;;;;;;;2.63;1.27;;;25.90;48.10;;;;;;5075950;28;20032;-61
2022/06/11 11:50:11;;;;;;;2.58;0.90;;;26.00;48.70;;;;;;5083329;28;20104;-62
2022/06/11 11:52:43;;;;;;;2.10;1.15;;;26.30;48.30;;;;;;5083843;28;20064;-62
2022/06/11 11:55:24;;;;;;;3.00;1.13;;;26.60;47.60;;;;;;5088839;28;20092;-62
2022/06/11 11:57:56;;;;;;;4.00;1.10;;;26.80;47.00;;;;;;5077570;28;20367;-61
2022/06/11 12:00:32;;;;;;;1.80;1.33;;;26.80;47.60;;;;;;5082267;28;20433;-61
2022/06/11 12:03:05;;;;;;;1.35;1.00;;;26.70;47.60;;;;;;5078914;28;20040;-61
2022/06/11 12:05:46;;;;;;;1.92;0.90;;;26.60;47.90;;;;;;5080179;28;20450;-61
2022/06/11 12:08:21;;;;;;;7.32;1.13;;;26.60;47.40;;;;;;5085100;28;20372;-62
2022/06/11 12:10:50;;;;;;;2.60;1.17;;;26.60;47.30;;;;;;5082565;28;20180;-62
2022/06/11 12:13:25;;;;;;;2.72;1.05;;;26.60;47.60;;;;;;5068707;28;20036;-62
2022/06/11 12:16:03;;;;;;;1.58;1.15;;;26.80;48.10;;;;;;5072446;28;20107;-62
2022/06/11 12:18:51;;;;;;;2.53;1.48;;;27.00;47.20;;;;;;5074315;28;20051;-62
2022/06/11 12:21:28;;;;;;;1.13;0.98;;;27.20;46.30;;;;;;5073575;28;20153;-62
2022/06/11 12:24:17;;;;;;;1.35;0.80;;;27.20;46.70;;;;;;5072743;28;20033;-65
2022/06/11 12:26:47;;;;;;;4.25;1.25;;;27.10;47.00;;;;;;5073315;28;20040;-62
2022/06/11 12:29:15;;;;;;;2.08;1.17;;;26.70;46.40;;;;;;5075183;28;20020;-65
2022/06/11 12:31:41;;;;;;;2.85;1.40;;;26.50;47.40;;;;;;5082417;28;20404;-61
2022/06/11 12:34:19;;;;;;;1.13;0.95;;;26.50;47.40;;;;;;5081947;28;20067;-65
2022/06/11 12:37:09;;;;;;;4.80;1.25;;;26.80;47.60;;;;;;5085284;28;20486;-65
2022/06/11 12:39:59;;;;;;;3.47;1.45;;;27.10;46.80;;;;;;5078951;28;20033;-65
2022/06/11 12:42:46;;;;;;;4.00;1.65;;;27.40;46.80;;;;;;5090269;28;20039;-65
2022/06/11 12:45:36;;;;;;;2.13;1.23;;;27.30;46.30;;;;;;5083935;28;20085;-65
2022/06/11 12:48:16;;;;;;;2.50;1.15;;;27.10;46.60;;;;;;5077780;28;20326;-61
2022/06/11 12:50:48;;;;;;;2.20;1.55;;;27.10;47.20;;;;;;5079998;28;20099;-64
2022/06/11 12:53:26;;;;;;;0.98;0.98;;;27.20;47.30;;;;;;5076248;28;20497;-64
2022/06/11 12:56:05;;;;;;;2.80;1.10;;;27.50;47.80;;;;;;5068836;28;20102;-65
2022/06/11 12:59:24;;;;;;;1.75;0.93;;;27.80;46.80;;;;;;5079192;28;20032;-65
2022/06/11 13:01:59;;;;;;;0.73;0.70;;;27.80;46.90;;;;;;5005299;28;20065;-64
2022/06/11 13:04:33;;;;;;;4.47;0.93;;;27.80;47.30;;;;;;5073769;28;20604;-64
2022/06/11 13:07:11;;;;;;;2.85;1.00;;;27.70;46.80;;;;;;5080508;28;20570;-64
2022/06/11 13:10:10;;;;;;;1.95;0.80;;;27.70;46.20;;;;;;5072151;28;20037;-64
2022/06/11 13:12:57;;;;;;;4.32;1.30;;;28.00;46.70;;;;;;5081438;28;20134;-64
2022/06/11 13:15:28;;;;;;;6.20;1.10;;;28.30;46.00;;;;;;5077159;28;20020;-64
2022/06/11 13:18:03;;;;;;;3.38;1.70;;;28.40;46.40;;;;;;5086446;28;20544;-64
2022/06/11 13:20:45;;;;;;;1.45;1.08;;;28.50;45.70;;;;;;5073914;28;20511;-62
2022/06/11 13:23:22;;;;;;;5.18;1.33;;;28.40;44.40;;;;;;5077656;28;20035;-62